Bradley International Airport
KBDL : now visible

Airfield :











YOU CAN JOIN US ON...

 
LOGIN :

Register | Disclaimer

   EN    FR    IT 

 









Legend :    VFR   Marginal VFR   IFR   Intensive IFR   Very Intensive IFR
Visi :
Ceiling :
>= 8 km
>= 3000ft
5 to 8 km
1000 to 3000 ft
1500m to 5 km
500 to 1000 ft
800 to 1500m
200 to 500 ft
< 800m
< 200 ft
Symbols :   Thunderstorms  Fog  Heavy snow  Heavy precipitations  Wind > 20 kt






- Airport Elevation : 173 ft
- IATA code : BDL


KBDL - Bradley International

CURRENT METAR :
  • 050721Z 34004KT 10SM BKN028 OVC034 19/16 A3010 RMK AO2 T01890161

EXPIRED METARs :
  • 050651Z 01005KT 10SM SCT029 OVC034 19/16 A3010 RMK AO2 RAE0556 SLP193 P0000 T01890161
  • 050607Z 02006KT 10SM SCT028 OVC033 19/17 A3012 RMK AO2 RAE0556 P0000 T01890167
  • 050551Z 02006KT 10SM -RA FEW023 BKN028 OVC035 19/16 A3013 RMK AO2 RAB43 SLP200 P0000 60000 T01940161 10217 20194 56008
  • 050451Z 06004KT 10SM SCT039 BKN050 OVC065 20/16 A3013 RMK AO2 SLP200 T02000161 402500144

TAF KBDL
Valid from the 05 at 06:00 until the 06 at 12:00 UTC


050539Z 0506/0612 01004KT P6SM VCSH SCT025 OVC040
FM050800 01006KT P6SM VCSH OVC015
FM051700 36007KT P6SM BKN015
FM052200 34004KT P6SM BKN020
FM060000 33003KT P6SM BKN050
FM060600 00000KT P6SM SCT250
KZBW FIR / North America



MET'MAP, your aeronautical weather chart ! - Copyright ORBIFLY December 2007 - Disclaimer

ORBIFLY MET'MAP TEAM :

Programming & Development : Alexandra Zaïnal
Concept & original design : Baudouin d'Aumeries
Assistance for programming : Marc-Olivier Méhu
Technical & hardware support : Manuel Goepfert

Contact : metmap@orbifly.com




SOURCES & CREDITS :

   NOAA       Earth
Advisory